首页
METAR-TAF:

METAR-TAF

机场 :

南京, 中华人民共和国

南京禄口国际机场

纬度: 32-00N, 经度: 118-48E, 海拔: 12米

当前天气观测

该预报发布于51分钟前的05:00 UTC
风速2节,风向多变
温度 11°C
湿度 58%
气压 1027 hPa
能見度: 7000
散云层高于3000英尺

METAR: ZSNJ 250500Z VRB01MPS 7000 SCT030 11/03 Q1027 NOSIG

时间: 13:51 (05:51 UTC)

预报

该预报发布于2小时和43分钟前的03:08 UTC
预报有效从25日的 06点(UTC)到 26日的 06点(UTC)
风速6节,风向东转东南
能見度: 3000
散云层高于2600英尺
成为
从 25日的 19点(UTC)到 25日的 21点(UTC)
能見度: 2000
轻雾
成为
从 26日的 00点(UTC)到 26日的 01点(UTC)
能見度: 3500

TAF: ZSNJ 250308Z 2506/2606 11003MPS 3000 HZ SCT026 TX12/2507Z TN02/2522Z BECMG 2519/2521 2000 BR BECMG 2600/2601 3500 HZ

超过4000个机场的气象观测和天气预报(METAR&TAF报告)。

可查询的气象台以黄色和红色小点在地图上表示。

将鼠标移到小点上方,可查看气象台名称。

然后点击查看天气观测和预报。

如需切换地图:点击带黑十字的绿色按钮放大地图;点击带横线的绿色按钮缩小地图;或者点击绿色箭头查看邻近地区的地图。


METAR-TAF: